.
WxDataArchive / Data Records for 2010-10-31
2010-10-30 October 2010 2010-11-01

Data Records for Sunday, 31 October 2010

Time	Temp	Chill	HIndex	Humid	Dewpt	 Wind 	HiWind	WindDir	Rain 	Barom 
-----	----	-----	------	-----	-----	------	------	-------	-----	----- 
00:00	49.5	49.5	49.5	55	34.0	0	1	292	0.00	29.870 
00:05	49.1	49.1	49.1	55	33.6	0	0	---	0.00	29.870 
00:10	48.8	48.8	48.8	56	33.8	0	0	---	0.00	29.870 
00:15	48.3	48.3	48.3	57	33.8	0	0	---	0.00	29.879 
00:20	47.9	47.9	47.9	58	33.8	0	0	---	0.00	29.879 
00:25	47.6	47.6	47.6	58	33.6	0	0	---	0.00	29.879 
00:30	47.4	47.4	47.4	59	33.8	0	0	---	0.00	29.879 
00:35	47.1	47.1	47.1	60	33.9	0	0	---	0.00	29.879 
00:40	46.8	46.8	46.8	60	33.7	0	0	---	0.00	29.879 
00:45	46.5	46.5	46.5	60	33.4	0	0	---	0.00	29.879 
00:50	46.1	46.1	46.1	61	33.4	0	0	---	0.00	29.879 
00:55	45.7	45.7	45.7	62	33.4	0	0	---	0.00	29.879 
01:00	45.1	45.1	45.1	63	33.3	0	0	---	0.00	29.882 
01:05	44.6	44.6	44.6	63	32.8	0	0	---	0.00	29.882 
01:10	44.2	44.2	44.2	65	33.2	0	0	---	0.00	29.882 
01:15	43.6	43.6	43.6	66	33.0	0	1	292	0.00	29.885 
01:20	43.8	43.8	43.8	68	33.9	0	0	---	0.00	29.885 
01:25	44.2	44.2	44.2	69	34.7	0	1	292	0.00	29.885 
01:30	44.3	44.3	44.3	68	34.4	0	0	---	0.00	29.890 
01:35	44.3	44.3	44.3	68	34.4	0	2	292	0.00	29.890 
01:40	44.8	44.8	44.8	69	35.3	0	2	292	0.00	29.890 
01:45	44.9	44.9	44.9	69	35.4	0	1	292	0.00	29.894 
01:50	45.1	45.1	45.1	69	35.5	0	1	292	0.00	29.894 
01:55	44.9	44.9	44.9	69	35.4	0	0	---	0.00	29.894 
02:00	44.8	44.8	44.8	69	35.3	0	0	---	0.00	29.901 
02:05	44.5	44.5	44.5	69	35.0	0	0	---	0.00	29.901 
02:10	44.5	44.5	44.5	70	35.3	0	0	---	0.00	29.901 
02:15	44.3	44.3	44.3	70	35.1	0	1	292	0.00	29.906 
02:20	44.3	44.3	44.3	70	35.1	0	1	292	0.00	29.906 
02:25	44.2	44.2	44.2	71	35.4	0	1	292	0.00	29.906 
02:30	44.1	44.1	44.1	71	35.3	0	1	292	0.00	29.912 
02:35	43.9	43.9	43.9	72	35.5	0	1	292	0.00	29.912 
02:40	43.8	43.8	43.8	72	35.4	0	1	292	0.00	29.912 
02:45	43.8	43.8	43.8	73	35.7	0	3	292	0.00	29.921 
02:50	43.8	43.8	43.8	73	35.7	1	2	292	0.00	29.921 
02:55	43.6	43.6	43.6	73	35.5	0	2	292	0.00	29.921 
03:00	43.5	43.5	43.5	74	35.8	0	1	292	0.00	29.924 
03:05	43.3	43.3	43.3	74	35.6	0	1	292	0.00	29.924 
03:10	43.2	43.2	43.2	74	35.5	0	1	292	0.00	29.924 
03:15	42.9	42.9	42.9	75	35.5	0	2	292	0.00	29.935 
03:20	42.9	42.9	42.9	75	35.5	0	1	292	0.00	29.935 
03:25	42.8	42.8	42.8	76	35.8	0	1	292	0.00	29.935 
03:30	42.6	42.6	42.6	76	35.6	0	1	292	0.00	29.937 
03:35	42.5	42.5	42.5	77	35.8	0	1	292	0.00	29.937 
03:40	42.3	42.3	42.3	77	35.6	0	1	292	0.00	29.937 
03:45	42.3	42.3	42.3	77	35.6	0	2	292	0.00	29.944 
03:50	42.1	42.1	42.1	77	35.4	0	1	292	0.00	29.944 
03:55	41.9	41.9	41.9	78	35.5	0	1	292	0.00	29.944 
04:00	41.8	41.8	41.8	79	35.8	0	3	0	0.00	29.952 
04:05	41.8	41.8	41.8	79	35.8	0	1	0	0.00	29.952 
04:10	41.6	41.6	41.6	79	35.6	0	1	0	0.00	29.952 
04:15	41.6	41.6	41.6	80	35.9	0	2	22	0.00	29.955 
04:20	41.5	41.5	41.5	80	35.8	1	3	22	0.00	29.955 
04:25	41.5	41.5	41.5	80	35.8	0	1	315	0.00	29.955 
04:30	41.3	41.3	41.3	80	35.6	0	2	315	0.00	29.970 
04:35	41.2	41.2	41.2	80	35.5	0	2	0	0.00	29.970 
04:40	41.1	41.1	41.1	79	35.1	0	2	0	0.00	29.970 
04:45	41.1	41.1	41.1	78	34.8	1	3	0	0.00	29.977 
04:50	40.9	40.9	40.9	77	34.3	1	3	0	0.00	29.977 
04:55	40.9	40.9	40.9	76	33.9	1	3	0	0.00	29.977 
05:00	40.8	40.8	40.8	75	33.5	1	4	315	0.00	29.988 
05:05	40.6	40.6	40.6	74	33.0	0	2	315	0.00	29.988 
05:10	40.5	40.5	40.5	73	32.5	0	2	338	0.00	29.988 
05:15	40.5	40.5	40.5	72	32.2	1	3	0	0.00	29.998 
05:20	40.3	40.3	40.3	71	31.7	1	2	0	0.00	29.998 
05:25	40.3	40.3	40.3	71	31.7	0	3	0	0.00	29.998 
05:30	40.2	40.2	40.2	71	31.6	0	4	22	0.00	30.006 
05:35	39.9	39.9	39.9	71	31.3	0	3	292	0.00	30.006 
05:40	39.8	39.8	39.8	71	31.2	0	2	45	0.00	30.006 
05:45	39.8	39.8	39.8	71	31.2	0	1	45	0.00	30.012 
05:50	39.6	39.6	39.6	71	31.0	0	2	68	0.00	30.012 
05:55	39.5	39.5	39.5	71	30.9	0	1	68	0.00	30.012 
06:00	39.3	39.3	39.3	71	30.7	0	2	45	0.00	30.024 
06:05	39.2	39.2	39.2	71	30.6	0	3	45	0.00	30.024 
06:10	39.1	39.1	39.1	72	30.8	0	1	45	0.00	30.024 
06:15	38.9	38.9	38.9	72	30.7	0	2	45	0.00	30.029 
06:20	38.6	38.6	38.6	72	30.4	0	1	45	0.00	30.029 
06:25	38.6	38.6	38.6	73	30.7	0	2	45	0.00	30.029 
06:30	38.5	38.5	38.5	73	30.6	0	1	45	0.00	30.033 
06:35	38.3	38.3	38.3	73	30.4	0	1	45	0.00	30.033 
06:40	38.0	38.0	38.0	74	30.5	0	1	45	0.00	30.033 
06:45	38.0	38.0	38.0	74	30.5	0	1	45	0.00	30.042 
06:50	37.9	37.9	37.9	75	30.7	0	1	45	0.00	30.042 
06:55	37.8	37.8	37.8	75	30.6	0	1	45	0.00	30.042 
07:00	37.8	37.8	37.8	75	30.6	0	2	45	0.00	30.049 
07:05	37.6	37.6	37.6	75	30.4	0	2	45	0.00	30.049 
07:10	37.6	37.6	37.6	76	30.7	0	2	45	0.00	30.049 
07:15	37.6	37.6	37.6	76	30.7	0	1	45	0.00	30.057 
07:20	37.5	37.5	37.5	76	30.6	0	1	45	0.00	30.057 
07:25	37.3	37.3	37.3	76	30.4	0	1	45	0.00	30.057 
07:30	37.2	37.2	37.2	76	30.3	0	1	45	0.00	30.061 
07:35	37.0	37.0	37.0	76	30.2	0	1	45	0.00	30.061 
07:40	36.9	36.9	36.9	77	30.4	0	1	45	0.00	30.061 
07:45	36.8	36.8	36.8	77	30.3	0	2	45	0.00	30.071 
07:50	36.8	36.8	36.8	77	30.3	0	2	45	0.00	30.071 
07:55	36.6	36.6	36.6	77	30.1	0	0	---	0.00	30.071 
08:00	36.3	36.3	36.3	77	29.8	0	0	---	0.00	30.075 
08:05	36.2	36.2	36.2	78	30.0	0	0	---	0.00	30.075 
08:10	36.0	36.0	36.0	78	29.8	0	0	---	0.00	30.075 
08:15	35.9	35.9	35.9	78	29.7	0	0	---	0.00	30.090 
08:20	35.6	35.6	35.6	78	29.4	0	0	---	0.00	30.090 
08:25	35.5	35.5	35.5	79	29.6	0	0	---	0.00	30.090 
08:30	35.2	35.2	35.2	79	29.4	0	0	---	0.00	30.094 
08:35	35.0	35.0	35.0	79	29.2	0	0	---	0.00	30.094 
08:40	34.7	34.7	34.7	80	29.2	0	0	---	0.00	30.094 
08:45	34.6	34.6	34.6	80	29.1	0	0	---	0.00	30.103 
08:50	34.6	34.6	34.6	81	29.4	0	0	---	0.00	30.103 
08:55	34.6	34.6	34.6	81	29.4	0	0	---	0.00	30.103 
09:00	34.7	34.7	34.7	82	29.8	0	0	---	0.00	30.111 
09:05	35.3	35.3	35.3	82	30.4	0	0	---	0.00	30.111 
09:10	35.9	35.9	35.9	81	30.6	0	0	---	0.00	30.111 
09:15	36.5	36.5	36.5	80	30.9	0	1	45	0.00	30.121 
09:20	37.0	37.0	37.0	78	30.8	0	0	---	0.00	30.121 
09:25	37.6	37.6	37.6	76	30.7	0	1	45	0.00	30.121 
09:30	38.0	38.0	38.0	75	30.8	0	1	45	0.00	30.125 
09:35	38.5	38.5	38.5	73	30.6	0	1	45	0.00	30.125 
09:40	39.2	39.2	39.2	71	30.6	0	3	45	0.00	30.125 
09:45	39.8	39.8	39.8	70	30.8	0	1	45	0.00	30.129 
09:50	40.1	40.1	40.1	68	30.4	0	2	45	0.00	30.129 
09:55	40.3	40.3	40.3	67	30.2	0	1	45	0.00	30.129 
10:00	40.9	40.9	40.9	65	30.1	1	4	45	0.00	30.138 
10:05	41.3	41.3	41.3	65	30.4	0	1	22	0.00	30.138 
10:10	41.8	41.8	41.8	62	29.7	1	3	22	0.00	30.138 
10:15	42.2	42.2	42.2	61	29.7	0	2	22	0.00	30.146 
10:20	42.8	42.8	42.8	60	29.9	0	3	45	0.00	30.146 
10:25	42.9	42.9	42.9	58	29.2	0	3	338	0.00	30.146 
10:30	43.2	43.2	43.2	58	29.4	0	3	45	0.00	30.151 
10:35	43.3	43.3	43.3	57	29.1	0	2	22	0.00	30.151 
10:40	43.8	43.8	43.8	56	29.1	0	2	22	0.00	30.151 
10:45	44.2	44.2	44.2	55	29.1	0	2	22	0.00	30.153 
10:50	44.6	44.6	44.6	54	29.0	0	2	22	0.00	30.153 
10:55	44.8	44.8	44.8	53	28.7	1	3	22	0.00	30.153 
11:00	44.6	44.6	44.6	52	28.1	1	3	112	0.00	30.154 
11:05	44.6	44.6	44.6	52	28.1	0	3	112	0.00	30.154 
11:10	45.1	45.1	45.1	52	28.5	1	4	90	0.00	30.154 
11:15	45.8	45.8	45.8	52	29.2	0	2	90	0.00	30.154 
11:20	46.0	46.0	46.0	50	28.4	0	2	90	0.00	30.154 
11:25	46.1	46.1	46.1	48	27.5	1	3	90	0.00	30.154 
11:30	46.1	46.1	46.1	48	27.5	1	2	45	0.00	30.162 
11:35	46.5	46.5	46.5	47	27.4	0	3	68	0.00	30.162 
11:40	46.8	46.8	46.8	45	26.6	1	5	22	0.00	30.162 
11:45	47.1	47.1	47.1	45	26.9	1	4	112	0.00	30.158 
11:50	47.1	47.1	47.1	46	27.4	0	3	338	0.00	30.158 
11:55	47.3	47.3	47.3	44	26.5	1	5	90	0.00	30.158 
12:00	47.3	47.3	47.3	45	27.0	0	4	112	0.00	30.158 
12:05	47.1	47.1	47.1	43	25.8	1	5	292	0.00	30.158 
12:10	47.1	47.1	47.1	44	26.3	1	3	22	0.00	30.158 
12:15	47.6	47.6	47.6	44	26.8	1	4	338	0.00	30.168 
12:20	47.7	47.7	47.7	43	26.3	1	5	112	0.00	30.168 
12:25	47.7	47.7	47.7	44	26.9	2	5	112	0.00	30.168 
12:30	47.9	47.9	47.9	43	26.5	0	2	0	0.00	30.170 
12:35	48.2	48.2	48.2	43	26.8	1	7	0	0.00	30.170 
12:40	48.5	48.5	48.5	42	26.5	1	3	45	0.00	30.170 
12:45	48.5	48.5	48.5	43	27.0	0	3	45	0.00	30.167 
12:50	48.8	48.8	48.8	42	26.7	1	5	135	0.00	30.167 
12:55	48.9	48.9	48.9	41	26.2	1	3	90	0.00	30.167 
13:00	49.1	49.1	49.1	41	26.4	2	7	90	0.00	30.167 
13:05	49.2	49.2	49.2	40	25.9	1	5	90	0.00	30.167 
13:10	49.2	49.2	49.2	41	26.5	1	5	112	0.00	30.167 
13:15	49.2	49.2	49.2	41	26.5	1	5	112	0.00	30.159 
13:20	49.4	49.4	49.4	39	25.5	0	4	45	0.00	30.159 
13:25	49.1	49.1	49.1	39	25.2	1	4	112	0.00	30.159 
13:30	48.6	48.6	48.6	39	24.8	0	2	68	0.00	30.157 
13:35	48.2	48.2	48.2	39	24.4	1	2	45	0.00	30.157 
13:40	48.5	48.5	48.5	40	25.3	0	3	45	0.00	30.157 
13:45	48.6	48.6	48.6	39	24.8	1	4	338	0.00	30.159 
13:50	48.8	48.8	48.8	39	25.0	1	3	292	0.00	30.159 
13:55	49.4	49.4	49.4	38	24.9	0	2	315	0.00	30.159 
14:00	48.9	48.9	48.9	38	24.4	1	4	292	0.00	30.157 
14:05	48.5	48.5	48.5	39	24.7	1	3	292	0.00	30.157 
14:10	48.3	48.3	48.3	39	24.5	0	3	315	0.00	30.157 
14:15	48.5	48.5	48.5	39	24.7	0	3	90	0.00	30.160 
14:20	48.9	48.9	48.9	39	25.0	1	4	270	0.00	30.160 
14:25	48.8	48.8	48.8	39	25.0	1	3	338	0.00	30.160 
14:30	48.6	48.6	48.6	39	24.8	0	3	315	0.00	30.164 
14:35	48.5	48.5	48.5	39	24.7	0	2	315	0.00	30.164 
14:40	48.8	48.8	48.8	40	25.6	0	2	0	0.00	30.164 
14:45	48.9	48.9	48.9	41	26.2	1	2	22	0.00	30.165 
14:50	48.9	48.9	48.9	39	25.0	0	2	270	0.00	30.165 
14:55	48.9	48.9	48.9	41	26.2	0	1	270	0.00	30.165 
15:00	48.9	48.9	48.9	40	25.7	0	2	270	0.00	30.170 
15:05	48.9	48.9	48.9	40	25.7	0	2	270	0.00	30.170 
15:10	49.2	49.2	49.2	39	25.3	1	3	22	0.00	30.170 
15:15	49.4	49.4	49.4	39	25.5	0	2	22	0.00	30.169 
15:20	49.6	49.6	49.6	39	25.7	0	2	22	0.00	30.169 
15:25	50.1	50.1	50.1	37	24.9	0	4	22	0.00	30.169 
15:30	50.2	50.2	50.2	37	24.9	0	3	90	0.00	30.167 
15:35	50.2	50.2	50.2	38	25.6	1	4	22	0.00	30.167 
15:40	50.4	50.4	50.4	38	25.8	0	4	270	0.00	30.167 
15:45	50.5	50.5	50.5	37	25.2	0	4	45	0.00	30.168 
15:50	50.5	50.5	50.5	37	25.2	1	4	22	0.00	30.168 
15:55	50.5	50.5	50.5	38	25.9	1	3	292	0.00	30.168 
16:00	50.4	50.4	50.4	38	25.8	0	2	338	0.00	30.168 
16:05	50.4	50.4	50.4	38	25.8	0	1	338	0.00	30.168 
16:10	50.2	50.2	50.2	37	24.9	1	3	68	0.00	30.168 
16:15	50.2	50.2	50.2	38	25.6	0	2	68	0.00	30.174 
16:20	50.4	50.4	50.4	37	25.1	0	2	45	0.00	30.174 
16:25	50.5	50.5	50.5	38	25.9	1	5	45	0.00	30.174 
16:30	50.4	50.4	50.4	38	25.8	0	2	45	0.00	30.173 
16:35	50.4	50.4	50.4	38	25.8	0	2	68	0.00	30.173 
16:40	50.2	50.2	50.2	38	25.6	0	2	90	0.00	30.173 
16:45	50.2	50.2	50.2	37	24.9	0	2	90	0.00	30.178 
16:50	50.2	50.2	50.2	38	25.6	0	2	22	0.00	30.178 
16:55	50.2	50.2	50.2	38	25.6	1	5	338	0.00	30.178 
17:00	50.1	50.1	50.1	38	25.5	0	3	292	0.00	30.184 
17:05	49.9	49.9	49.9	38	25.3	0	3	292	0.00	30.184 
17:10	49.8	49.8	49.8	38	25.2	0	2	315	0.00	30.184 
17:15	49.8	49.8	49.8	40	26.5	0	1	315	0.00	30.190 
17:20	49.8	49.8	49.8	39	25.9	0	1	315	0.00	30.190 
17:25	49.6	49.6	49.6	39	25.7	0	2	315	0.00	30.190 
17:30	49.6	49.6	49.6	39	25.7	0	1	315	0.00	30.191 
17:35	49.5	49.5	49.5	40	26.2	0	3	315	0.00	30.191 
17:40	49.5	49.5	49.5	40	26.2	0	1	315	0.00	30.191 
17:45	49.4	49.4	49.4	40	26.1	0	1	315	0.00	30.191 
17:50	49.2	49.2	49.2	41	26.5	0	1	315	0.00	30.191 
17:55	49.2	49.2	49.2	40	25.9	0	2	315	0.00	30.191 
18:00	49.1	49.1	49.1	40	25.8	0	2	315	0.00	30.205 
18:05	48.8	48.8	48.8	41	26.2	0	1	315	0.00	30.205 
18:10	48.6	48.6	48.6	41	26.0	0	1	315	0.00	30.205 
18:15	48.3	48.3	48.3	42	26.3	0	1	315	0.00	30.205 
18:20	48.0	48.0	48.0	43	26.6	0	1	315	0.00	30.205 
18:25	47.7	47.7	47.7	43	26.3	0	0	---	0.00	30.205 
18:30	47.4	47.4	47.4	43	26.0	0	0	---	0.00	30.212 
18:35	47.0	47.0	47.0	43	25.7	0	0	---	0.00	30.212 
18:40	46.7	46.7	46.7	44	26.0	0	0	---	0.00	30.212 
18:45	46.2	46.2	46.2	45	26.0	0	0	---	0.00	30.224 
18:50	46.1	46.1	46.1	45	26.0	0	1	315	0.00	30.224 
18:55	45.8	45.8	45.8	46	26.2	0	1	315	0.00	30.224 
19:00	45.7	45.7	45.7	46	26.1	0	0	---	0.00	30.228 
19:05	45.2	45.2	45.2	47	26.2	0	0	---	0.00	30.228 
19:10	44.9	44.9	44.9	48	26.4	0	0	---	0.00	30.228 
19:15	44.6	44.6	44.6	48	26.1	0	0	---	0.00	30.233 
19:20	44.2	44.2	44.2	49	26.3	0	0	---	0.00	30.233 
19:25	43.9	43.9	43.9	50	26.5	0	0	---	0.00	30.233 
19:30	43.5	43.5	43.5	50	26.1	0	0	---	0.00	30.245 
19:35	43.1	43.1	43.1	51	26.2	0	0	---	0.00	30.245 
19:40	42.6	42.6	42.6	52	26.2	0	0	---	0.00	30.245 
19:45	42.2	42.2	42.2	53	26.3	0	0	---	0.00	30.250 
19:50	41.8	41.8	41.8	54	26.4	0	0	---	0.00	30.250 
19:55	41.3	41.3	41.3	54	25.9	0	0	---	0.00	30.250 
20:00	40.9	40.9	40.9	55	26.0	0	0	---	0.00	30.253 
20:05	40.5	40.5	40.5	57	26.5	0	0	---	0.00	30.253 
20:10	40.1	40.1	40.1	58	26.5	0	0	---	0.00	30.253 
20:15	39.6	39.6	39.6	59	26.5	0	0	---	0.00	30.261 
20:20	39.3	39.3	39.3	60	26.6	0	0	---	0.00	30.261 
20:25	39.1	39.1	39.1	60	26.4	0	0	---	0.00	30.261 
20:30	38.8	38.8	38.8	61	26.5	0	0	---	0.00	30.263 
20:35	38.5	38.5	38.5	62	26.6	0	0	---	0.00	30.263 
20:40	38.3	38.3	38.3	62	26.4	0	0	---	0.00	30.263 
20:45	38.0	38.0	38.0	62	26.2	0	0	---	0.00	30.273 
20:50	37.8	37.8	37.8	63	26.4	0	0	---	0.00	30.273 
20:55	37.5	37.5	37.5	64	26.4	0	0	---	0.00	30.273 
21:00	37.2	37.2	37.2	65	26.5	0	0	---	0.00	30.275 
21:05	36.9	36.9	36.9	65	26.3	0	0	---	0.00	30.275 
21:10	36.5	36.5	36.5	66	26.2	0	0	---	0.00	30.275 
21:15	36.2	36.2	36.2	67	26.3	0	0	---	0.00	30.274 
21:20	36.0	36.0	36.0	68	26.5	0	0	---	0.00	30.274 
21:25	35.9	35.9	35.9	68	26.4	0	0	---	0.00	30.274 
21:30	35.8	35.8	35.8	68	26.3	0	0	---	0.00	30.279 
21:35	35.6	35.6	35.6	69	26.4	0	0	---	0.00	30.279 
21:40	35.5	35.5	35.5	69	26.4	0	0	---	0.00	30.279 
21:45	35.3	35.3	35.3	69	26.2	0	0	---	0.00	30.281 
21:50	35.2	35.2	35.2	70	26.4	0	0	---	0.00	30.281 
21:55	34.9	34.9	34.9	70	26.1	0	0	---	0.00	30.281 
22:00	34.7	34.7	34.7	71	26.3	0	0	---	0.00	30.294 
22:05	34.6	34.6	34.6	72	26.5	0	0	---	0.00	30.294 
22:10	34.4	34.4	34.4	73	26.7	0	0	---	0.00	30.294 
22:15	34.3	34.3	34.3	73	26.6	0	0	---	0.00	30.298 
22:20	34.1	34.1	34.1	73	26.4	0	0	---	0.00	30.298 
22:25	33.8	33.8	33.8	74	26.4	0	0	---	0.00	30.298 
22:30	33.7	33.7	33.7	74	26.3	0	0	---	0.00	30.306 
22:35	33.7	33.7	33.7	75	26.6	0	0	---	0.00	30.306 
22:40	33.5	33.5	33.5	75	26.4	0	0	---	0.00	30.306 
22:45	33.5	33.5	33.5	76	26.8	0	0	---	0.00	30.310 
22:50	33.5	33.5	33.5	76	26.8	0	0	---	0.00	30.310 
22:55	33.4	33.4	33.4	76	26.7	0	0	---	0.00	30.310 
23:00	33.2	33.2	33.2	76	26.5	0	0	---	0.00	30.312 
23:05	33.1	33.1	33.1	77	26.7	0	0	---	0.00	30.312 
23:10	33.1	33.1	33.1	77	26.7	0	0	---	0.00	30.312 
23:15	33.1	33.1	33.1	77	26.7	0	0	---	0.00	30.320 
23:20	32.9	32.9	32.9	77	26.5	0	0	---	0.00	30.320 
23:25	32.9	32.9	32.9	77	26.5	0	0	---	0.00	30.320 
23:30	32.8	32.8	32.8	77	26.4	0	0	---	0.00	30.322 
23:35	32.8	32.8	32.8	77	26.4	0	0	---	0.00	30.322 
23:40	32.7	32.7	32.7	77	26.3	0	0	---	0.00	30.322 
23:45	32.7	32.7	32.7	78	26.6	0	0	---	0.00	30.323 
23:50	32.5	32.5	32.5	78	26.4	0	0	---	0.00	30.323 
23:55	32.5	32.5	32.5	78	26.4	0	0	---	0.00	30.323 

CoCoRaHS
IN-AL-39
A2 Web Hosting
Creative Commons License
GoDaddy
search engine by freefind advanced

loaded 2018-11-17 12:54:50 • last modified 2010-11-18 10:43:29
Privacy PolicyDisclaimer
• wx.awcolley.com is powered by PmWiki v.2002016 •
• all content (unless otherwise noted) © 2018 A W Colley